Time;durP1;ratioP1;P1;durP2;ratioP2;P2;SDS_P1;SDS_P2;PMS_P1;PMS_P2;Temp;Humidity;BMP_temperature;BMP_pressure;BME280_temperature;BME280_humidity;BME280_pressure;Samples;Min_cycle;Max_cycle;Signal;HPM_P1;HPM_P2
2021/07/20 00:01:18;;;;;;;15.32;13.82;;;;;;;;;;5052558;28;20076;-69
2021/07/20 00:03:45;;;;;;;18.48;15.45;;;;;;;;;;5056102;28;20116;-69
2021/07/20 00:06:13;;;;;;;21.30;16.23;;;;;;;;;;5056367;28;20025;-69
2021/07/20 00:08:40;;;;;;;17.55;14.85;;;;;;;;;;5056337;28;20028;-69
2021/07/20 00:11:06;;;;;;;16.35;14.55;;;;;;;;;;5056235;28;20053;-70
2021/07/20 00:13:33;;;;;;;18.15;14.85;;;;;;;;;;5056239;28;20108;-69
2021/07/20 00:16:01;;;;;;;17.42;14.45;;;;;;;;;;5054865;28;20453;-69
2021/07/20 00:18:33;;;;;;;19.50;13.88;;;;;;;;;;5056186;28;20120;-70
2021/07/20 00:20:59;;;;;;;15.98;14.25;;;;;;;;;;5056068;28;20025;-69
2021/07/20 00:23:26;;;;;;;16.33;14.52;;;;;;;;;;5056009;28;20040;-69
2021/07/20 00:26:29;;;;;;;19.35;14.40;;;;;;;;;;5055883;28;20041;-70
2021/07/20 00:28:55;;;;;;;21.55;14.93;;;;;;;;;;5054153;28;20057;-70
2021/07/20 00:31:22;;;;;;;16.50;14.65;;;;;;;;;;5056137;28;20029;-70
2021/07/20 00:33:48;;;;;;;17.75;15.85;;;;;;;;;;5054478;28;20120;-69
2021/07/20 00:36:14;;;;;;;20.60;16.33;;;;;;;;;;5055526;28;20033;-70
2021/07/20 00:38:40;;;;;;;19.52;16.20;;;;;;;;;;5055768;28;20108;-70
2021/07/20 00:41:07;;;;;;;22.55;17.70;;;;;;;;;;5054244;28;20381;-70
2021/07/20 00:43:33;;;;;;;19.55;17.42;;;;;;;;;;5054355;28;20028;-69
2021/07/20 00:46:00;;;;;;;25.17;18.60;;;;;;;;;;5055898;28;20027;-70
2021/07/20 00:48:26;;;;;;;27.75;18.00;;;;;;;;;;5055850;28;20120;-70
2021/07/20 00:50:52;;;;;;;21.30;17.98;;;;;;;;;;5054183;28;20111;-69
2021/07/20 00:53:18;;;;;;;21.98;18.48;;;;;;;;;;5055748;28;20021;-69
2021/07/20 00:55:45;;;;;;;23.45;18.77;;;;;;;;;;5054085;28;20028;-69
2021/07/20 00:58:11;;;;;;;23.83;18.20;;;;;;;;;;5055444;28;20115;-68
2021/07/20 01:00:39;;;;;;;24.83;18.52;;;;;;;;;;5055289;28;20028;-69
2021/07/20 01:03:06;;;;;;;19.80;17.45;;;;;;;;;;5055303;28;20104;-69
2021/07/20 01:05:32;;;;;;;24.00;18.50;;;;;;;;;;5055488;28;20166;-69
2021/07/20 01:08:00;;;;;;;23.95;19.17;;;;;;;;;;5055240;28;20025;-69
2021/07/20 01:10:26;;;;;;;23.40;19.92;;;;;;;;;;5055170;28;20036;-68
2021/07/20 01:12:52;;;;;;;27.63;19.80;;;;;;;;;;5055010;28;20120;-70
2021/07/20 01:15:21;;;;;;;24.58;21.05;;;;;;;;;;5053749;28;20025;-69
2021/07/20 01:17:48;;;;;;;29.00;20.20;;;;;;;;;;5053696;28;20111;-70
2021/07/20 01:20:15;;;;;;;27.35;20.80;;;;;;;;;;5054575;28;20370;-69
2021/07/20 01:22:44;;;;;;;25.67;20.38;;;;;;;;;;5054887;28;20032;-70
2021/07/20 01:25:12;;;;;;;27.55;20.17;;;;;;;;;;5054576;28;20475;-70
2021/07/20 01:27:44;;;;;;;31.63;19.88;;;;;;;;;;5054760;28;20045;-69
2021/07/20 01:30:11;;;;;;;25.25;19.83;;;;;;;;;;5055099;28;20423;-69
2021/07/20 01:32:39;;;;;;;25.88;20.30;;;;;;;;;;5053419;28;20202;-70
2021/07/20 01:35:06;;;;;;;23.30;20.52;;;;;;;;;;5054905;28;20044;-68
2021/07/20 01:37:33;;;;;;;31.15;21.38;;;;;;;;;;5053351;28;20484;-69
2021/07/20 01:39:59;;;;;;;25.67;20.83;;;;;;;;;;5054507;28;20029;-69
2021/07/20 01:42:27;;;;;;;24.80;20.00;;;;;;;;;;5053219;28;20071;-68
2021/07/20 01:44:53;;;;;;;25.38;20.80;;;;;;;;;;5054557;28;20100;-70
2021/07/20 01:47:20;;;;;;;34.63;22.08;;;;;;;;;;5054427;28;20043;-69
2021/07/20 01:49:47;;;;;;;25.50;21.48;;;;;;;;;;5054469;28;20071;-68
2021/07/20 01:52:14;;;;;;;29.77;22.00;;;;;;;;;;5053038;28;20021;-69
2021/07/20 01:54:47;;;;;;;28.77;23.02;;;;;;;;;;5054348;28;20485;-69
2021/07/20 01:57:13;;;;;;;27.05;21.75;;;;;;;;;;5054505;28;20147;-69
2021/07/20 01:59:43;;;;;;;26.38;21.95;;;;;;;;;;5054448;28;20143;-70
2021/07/20 02:02:16;;;;;;;30.55;24.05;;;;;;;;;;5052813;28;20040;-68
2021/07/20 02:08:24;;;;;;;29.20;23.70;;;;;;;;;;5052879;28;20025;-69
2021/07/20 02:10:23;;;;;;;29.13;24.85;;;;;;;;;;5054041;28;20095;-70
2021/07/20 02:12:51;;;;;;;27.58;24.02;;;;;;;;;;5053937;28;20017;-70
2021/07/20 02:15:18;;;;;;;34.15;24.13;;;;;;;;;;5052596;28;20115;-69
2021/07/20 02:17:45;;;;;;;34.17;24.63;;;;;;;;;;5053943;28;20024;-70
2021/07/20 02:20:19;;;;;;;32.20;24.40;;;;;;;;;;5053707;28;20115;-69
2021/07/20 02:22:46;;;;;;;28.67;25.10;;;;;;;;;;5053837;28;20060;-70
2021/07/20 02:25:14;;;;;;;34.13;24.58;;;;;;;;;;5053255;28;20570;-69
2021/07/20 02:27:40;;;;;;;30.23;24.70;;;;;;;;;;5053337;28;20091;-69
2021/07/20 02:30:12;;;;;;;31.30;23.67;;;;;;;;;;5053660;28;20020;-69
2021/07/20 02:32:39;;;;;;;31.15;24.33;;;;;;;;;;5053654;28;20021;-69
2021/07/20 02:35:06;;;;;;;34.03;25.52;;;;;;;;;;5053527;28;20025;-69
2021/07/20 02:37:34;;;;;;;30.40;25.00;;;;;;;;;;5053550;28;20021;-69
2021/07/20 02:40:01;;;;;;;31.60;25.38;;;;;;;;;;5053499;28;20029;-70
2021/07/20 02:42:27;;;;;;;35.47;25.33;;;;;;;;;;5052110;28;20020;-68
2021/07/20 02:44:55;;;;;;;34.90;26.35;;;;;;;;;;5053371;28;20033;-69
2021/07/20 02:47:22;;;;;;;31.02;26.05;;;;;;;;;;5053369;28;20017;-70
2021/07/20 02:49:49;;;;;;;34.33;25.15;;;;;;;;;;5051769;28;20028;-70
2021/07/20 02:52:15;;;;;;;30.13;24.75;;;;;;;;;;5053265;28;20365;-70
2021/07/20 02:54:42;;;;;;;38.30;28.58;;;;;;;;;;5053245;28;20021;-69
2021/07/20 02:57:09;;;;;;;35.17;26.70;;;;;;;;;;5051846;28;20112;-68
2021/07/20 02:59:36;;;;;;;32.15;27.17;;;;;;;;;;5053187;28;20043;-68
2021/07/20 03:02:04;;;;;;;38.80;28.60;;;;;;;;;;5053150;28;20091;-68
2021/07/20 03:04:30;;;;;;;34.00;28.95;;;;;;;;;;5053068;28;20099;-68
2021/07/20 03:06:58;;;;;;;41.25;29.52;;;;;;;;;;5051752;28;20424;-68
2021/07/20 03:09:25;;;;;;;40.95;29.60;;;;;;;;;;5052792;28;20464;-69
2021/07/20 03:11:56;;;;;;;37.63;29.42;;;;;;;;;;5053074;28;20025;-70
2021/07/20 03:14:24;;;;;;;37.80;29.50;;;;;;;;;;5051730;28;20025;-70
2021/07/20 03:16:50;;;;;;;37.25;30.55;;;;;;;;;;5052951;28;20023;-70
2021/07/20 03:19:18;;;;;;;42.55;28.70;;;;;;;;;;5052587;28;20389;-70
2021/07/20 03:21:45;;;;;;;37.95;29.48;;;;;;;;;;5052883;28;20025;-70
2021/07/20 03:24:12;;;;;;;37.15;30.00;;;;;;;;;;5052948;28;20032;-69
2021/07/20 03:26:39;;;;;;;36.78;28.80;;;;;;;;;;5052833;28;20025;-70
2021/07/20 03:29:06;;;;;;;35.70;28.20;;;;;;;;;;5052954;28;20045;-70
2021/07/20 03:31:36;;;;;;;36.88;28.90;;;;;;;;;;5053107;28;20025;-69
2021/07/20 03:34:03;;;;;;;39.85;30.23;;;;;;;;;;5051493;28;20029;-69
2021/07/20 03:36:30;;;;;;;39.70;29.20;;;;;;;;;;5052831;28;20017;-67
2021/07/20 03:38:57;;;;;;;34.40;28.13;;;;;;;;;;5056942;28;20017;-69
2021/07/20 03:41:25;;;;;;;34.13;28.98;;;;;;;;;;5055464;28;20037;-69
2021/07/20 03:43:52;;;;;;;33.90;28.20;;;;;;;;;;5056834;28;20550;-69
2021/07/20 03:46:18;;;;;;;33.30;27.45;;;;;;;;;;5056747;28;20112;-69
2021/07/20 03:48:45;;;;;;;34.13;27.23;;;;;;;;;;5056966;28;20023;-68
2021/07/20 03:51:11;;;;;;;38.70;28.27;;;;;;;;;;5056647;28;20029;-67
2021/07/20 03:53:38;;;;;;;36.83;27.90;;;;;;;;;;5055223;28;20388;-68
2021/07/20 03:56:06;;;;;;;33.65;27.83;;;;;;;;;;5056575;28;20500;-68
2021/07/20 03:58:38;;;;;;;35.45;27.38;;;;;;;;;;5055190;28;20489;-68
2021/07/20 04:01:04;;;;;;;;;;;;;;;;;;5056795;28;20025;-70
2021/07/20 04:03:31;;;;;;;30.75;25.90;;;;;;;;;;5055125;28;19913;-70
2021/07/20 04:06:04;;;;;;;33.33;26.88;;;;;;;;;;5056379;28;20481;-71
2021/07/20 04:08:34;;;;;;;41.67;27.13;;;;;;;;;;5056318;28;20021;-70
2021/07/20 04:11:01;;;;;;;33.53;26.38;;;;;;;;;;5056341;28;20033;-69
2021/07/20 04:13:27;;;;;;;33.40;27.27;;;;;;;;;;5056255;28;20092;-68
2021/07/20 04:16:01;;;;;;;34.72;26.17;;;;;;;;;;5056435;28;20100;-69
2021/07/20 04:18:29;;;;;;;32.00;25.58;;;;;;;;;;5054786;28;20024;-69
2021/07/20 04:20:56;;;;;;;35.53;26.88;;;;;;;;;;5054741;28;20032;-69
2021/07/20 04:23:23;;;;;;;33.08;26.42;;;;;;;;;;5056049;28;20075;-69
2021/07/20 04:25:51;;;;;;;33.65;25.38;;;;;;;;;;5054633;28;20024;-69
2021/07/20 04:28:19;;;;;;;30.85;24.33;;;;;;;;;;5055495;28;20049;-69
2021/07/20 04:30:46;;;;;;;31.27;25.02;;;;;;;;;;5056224;28;20483;-70
2021/07/20 04:33:15;;;;;;;34.22;26.90;;;;;;;;;;5055928;28;20546;-70
2021/07/20 04:35:42;;;;;;;31.73;25.23;;;;;;;;;;5055842;28;20029;-69
2021/07/20 04:38:10;;;;;;;26.67;23.77;;;;;;;;;;5055994;28;20406;-70
2021/07/20 04:40:39;;;;;;;34.67;25.17;;;;;;;;;;5054452;28;20117;-70
2021/07/20 04:43:06;;;;;;;27.17;24.23;;;;;;;;;;5055683;28;20044;-70
2021/07/20 04:45:32;;;;;;;27.90;24.30;;;;;;;;;;5055360;28;20432;-70
2021/07/20 04:47:59;;;;;;;32.78;24.60;;;;;;;;;;5055115;28;20082;-70
2021/07/20 04:50:28;;;;;;;27.17;23.83;;;;;;;;;;5055562;28;20040;-70
2021/07/20 04:52:58;;;;;;;26.90;23.25;;;;;;;;;;5055518;28;20099;-71
2021/07/20 04:55:24;;;;;;;32.67;24.90;;;;;;;;;;5055455;28;20116;-69
2021/07/20 04:57:51;;;;;;;29.52;23.40;;;;;;;;;;5054068;28;20159;-70
2021/07/20 05:00:17;;;;;;;29.98;23.25;;;;;;;;;;5055323;28;20115;-71
2021/07/20 05:02:46;;;;;;;36.40;24.92;;;;;;;;;;5055270;28;20100;-70
2021/07/20 05:05:15;;;;;;;28.40;22.45;;;;;;;;;;5053959;28;20021;-70
2021/07/20 05:07:41;;;;;;;30.90;22.65;;;;;;;;;;5055160;28;20418;-70
2021/07/20 05:10:11;;;;;;;28.42;22.85;;;;;;;;;;5055236;28;20500;-71
2021/07/20 05:12:37;;;;;;;26.70;22.08;;;;;;;;;;5055114;28;20025;-70
2021/07/20 05:15:04;;;;;;;33.05;22.30;;;;;;;;;;5055117;28;20446;-69
2021/07/20 05:17:31;;;;;;;29.30;23.65;;;;;;;;;;5054953;28;20053;-68
2021/07/20 05:19:58;;;;;;;28.90;22.05;;;;;;;;;;5054919;28;20044;-70
2021/07/20 05:22:24;;;;;;;28.75;22.25;;;;;;;;;;5054990;28;20028;-70
2021/07/20 05:24:51;;;;;;;28.52;23.25;;;;;;;;;;5055187;28;20139;-70
2021/07/20 05:27:17;;;;;;;31.42;23.15;;;;;;;;;;5053229;28;20086;-70
2021/07/20 05:29:46;;;;;;;28.52;23.65;;;;;;;;;;5053544;28;20025;-71
2021/07/20 05:32:15;;;;;;;29.85;23.83;;;;;;;;;;5053494;28;20025;-70
2021/07/20 05:34:41;;;;;;;29.10;22.08;;;;;;;;;;5054877;28;20556;-66
2021/07/20 05:37:07;;;;;;;27.33;21.55;;;;;;;;;;5054468;28;20021;-69
2021/07/20 05:39:34;;;;;;;28.05;21.10;;;;;;;;;;5052966;28;20032;-70
2021/07/20 05:42:04;;;;;;;24.63;20.00;;;;;;;;;;5054513;28;20025;-69
2021/07/20 05:44:31;;;;;;;30.98;20.98;;;;;;;;;;5054361;28;20108;-68
2021/07/20 05:46:58;;;;;;;28.88;21.50;;;;;;;;;;5053082;28;20107;-70
2021/07/20 05:49:24;;;;;;;26.92;20.40;;;;;;;;;;5047313;28;20125;-70
2021/07/20 05:51:51;;;;;;;24.30;19.85;;;;;;;;;;5032884;28;20025;-69
2021/07/20 05:54:18;;;;;;;23.48;19.42;;;;;;;;;;5034660;28;20060;-69
2021/07/20 05:56:44;;;;;;;28.75;19.50;;;;;;;;;;5034340;28;20013;-71
2021/07/20 05:59:10;;;;;;;29.80;22.38;;;;;;;;;;5033752;28;20025;-70
2021/07/20 06:01:38;;;;;;;23.65;19.08;;;;;;;;;;5033846;28;20026;-70
2021/07/20 06:04:05;;;;;;;27.67;18.75;;;;;;;;;;5034237;28;20034;-70
2021/07/20 06:06:31;;;;;;;27.65;18.77;;;;;;;;;;5033824;28;20104;-70
2021/07/20 06:09:02;;;;;;;25.95;19.60;;;;;;;;;;5033816;28;20040;-71
2021/07/20 06:11:29;;;;;;;22.45;18.08;;;;;;;;;;5034101;28;20104;-70
2021/07/20 06:13:55;;;;;;;24.25;18.65;;;;;;;;;;5034033;28;20022;-72
2021/07/20 06:16:22;;;;;;;24.13;18.52;;;;;;;;;;5032663;28;20031;-70
2021/07/20 06:18:49;;;;;;;23.00;17.77;;;;;;;;;;5032572;28;20018;-70
2021/07/20 06:21:17;;;;;;;24.15;20.02;;;;;;;;;;5032517;28;20171;-70
2021/07/20 06:23:46;;;;;;;30.55;23.80;;;;;;;;;;5033844;28;20108;-71
2021/07/20 06:26:16;;;;;;;31.20;21.70;;;;;;;;;;5033574;28;20422;-71
2021/07/20 06:28:42;;;;;;;22.65;19.52;;;;;;;;;;5033221;28;20076;-71
2021/07/20 06:31:08;;;;;;;24.25;18.73;;;;;;;;;;5032424;28;20033;-70
2021/07/20 06:33:36;;;;;;;27.10;18.02;;;;;;;;;;5032412;28;20116;-71
2021/07/20 06:36:02;;;;;;;20.20;18.00;;;;;;;;;;5033667;28;20072;-72
2021/07/20 06:38:29;;;;;;;24.75;18.40;;;;;;;;;;5033558;28;20024;-70
2021/07/20 06:40:55;;;;;;;23.45;17.85;;;;;;;;;;5034257;28;20029;-70
2021/07/20 06:43:23;;;;;;;20.42;17.38;;;;;;;;;;5051529;28;20029;-71
2021/07/20 06:45:50;;;;;;;19.25;16.83;;;;;;;;;;5053678;28;20413;-69
2021/07/20 06:48:18;;;;;;;26.33;17.35;;;;;;;;;;5052029;28;20028;-70
2021/07/20 06:50:45;;;;;;;22.40;17.50;;;;;;;;;;5052035;28;20028;-68
2021/07/20 06:53:12;;;;;;;18.73;16.73;;;;;;;;;;5034590;28;20108;-69
2021/07/20 06:55:44;;;;;;;23.10;17.83;;;;;;;;;;5031911;28;20059;-70
2021/07/20 06:58:10;;;;;;;;;;;;;;;;;;5034015;28;20481;-72
2021/07/20 07:00:36;;;;;;;22.65;17.48;;;;;;;;;;5031826;28;19912;-75
2021/07/20 07:03:04;;;;;;;19.27;16.00;;;;;;;;;;5033204;28;20108;-71
2021/07/20 07:05:31;;;;;;;20.00;15.18;;;;;;;;;;5033156;28;20053;-72
2021/07/20 07:07:58;;;;;;;19.42;15.32;;;;;;;;;;5033104;28;20021;-69
2021/07/20 07:10:24;;;;;;;22.08;16.45;;;;;;;;;;5033103;28;20060;-72
2021/07/20 07:12:51;;;;;;;16.73;14.38;;;;;;;;;;5032814;28;20021;-73
2021/07/20 07:15:18;;;;;;;20.80;15.48;;;;;;;;;;5031724;28;20033;-71
2021/07/20 07:17:49;;;;;;;17.80;14.48;;;;;;;;;;5032975;28;20397;-71
2021/07/20 07:20:25;;;;;;;21.92;15.18;;;;;;;;;;5031408;28;20032;-71
2021/07/20 07:22:51;;;;;;;22.63;14.40;;;;;;;;;;5033068;28;20028;-73
2021/07/20 07:25:18;;;;;;;20.30;14.35;;;;;;;;;;5031510;28;20025;-70
2021/07/20 07:27:44;;;;;;;16.67;13.45;;;;;;;;;;5032791;28;20077;-70
2021/07/20 07:30:11;;;;;;;18.55;14.07;;;;;;;;;;5032127;28;20018;-71
2021/07/20 07:32:38;;;;;;;17.75;14.25;;;;;;;;;;5031519;28;20022;-71
2021/07/20 07:35:05;;;;;;;17.10;13.23;;;;;;;;;;5032850;28;20022;-70
2021/07/20 07:37:32;;;;;;;16.70;14.30;;;;;;;;;;5031399;28;20425;-69
2021/07/20 07:39:59;;;;;;;15.82;13.02;;;;;;;;;;5032617;28;20533;-70
2021/07/20 07:42:25;;;;;;;16.10;11.55;;;;;;;;;;5036562;28;20083;-72
2021/07/20 07:44:52;;;;;;;15.98;12.15;;;;;;;;;;5052537;28;20025;-73
2021/07/20 07:47:19;;;;;;;15.60;12.63;;;;;;;;;;5052596;28;20052;-70
2021/07/20 07:49:46;;;;;;;20.05;12.68;;;;;;;;;;5051169;28;20033;-70
2021/07/20 07:52:13;;;;;;;14.85;12.07;;;;;;;;;;5052705;28;20041;-70
2021/07/20 07:54:45;;;;;;;15.43;13.05;;;;;;;;;;5052571;28;20021;-73
2021/07/20 07:57:12;;;;;;;15.73;13.25;;;;;;;;;;5052539;28;20108;-69
2021/07/20 07:59:39;;;;;;;16.23;13.65;;;;;;;;;;5052450;28;20029;-73
2021/07/20 08:02:07;;;;;;;20.83;15.48;;;;;;;;;;5051127;28;20174;-74
2021/07/20 08:04:34;;;;;;;18.30;14.93;;;;;;;;;;5052206;28;20543;-73
2021/07/20 08:07:01;;;;;;;23.45;14.98;;;;;;;;;;5040787;28;20458;-70
2021/07/20 08:09:30;;;;;;;18.95;15.93;;;;;;;;;;5032476;28;20032;-71
2021/07/20 08:11:57;;;;;;;19.83;15.20;;;;;;;;;;5023747;28;20018;-69
2021/07/20 08:14:23;;;;;;;16.60;14.68;;;;;;;;;;5012635;28;20080;-73
2021/07/20 08:16:51;;;;;;;17.92;15.45;;;;;;;;;;5021556;28;20478;-66
2021/07/20 08:19:19;;;;;;;17.92;14.95;;;;;;;;;;5020588;28;20485;-69
2021/07/20 08:21:46;;;;;;;16.63;13.85;;;;;;;;;;5012680;28;20426;-69
2021/07/20 08:24:13;;;;;;;19.85;14.48;;;;;;;;;;5015278;28;20033;-69
2021/07/20 08:26:48;;;;;;;16.73;12.65;;;;;;;;;;5016109;28;20090;-69
2021/07/20 08:29:17;;;;;;;14.98;12.20;;;;;;;;;;4976899;28;20035;-69
2021/07/20 08:31:45;;;;;;;15.05;11.85;;;;;;;;;;4977178;28;20031;-71
2021/07/20 08:34:12;;;;;;;17.48;11.60;;;;;;;;;;4975689;28;20113;-68
2021/07/20 08:36:40;;;;;;;16.25;12.23;;;;;;;;;;4975683;28;20065;-70
2021/07/20 08:39:07;;;;;;;14.75;12.30;;;;;;;;;;4976885;28;20029;-69
2021/07/20 08:42:01;;;;;;;17.55;10.63;;;;;;;;;;4976912;28;20118;-70
2021/07/20 08:44:46;;;;;;;16.85;10.95;;;;;;;;;;4976896;28;20027;-71
2021/07/20 08:47:17;;;;;;;21.00;11.52;;;;;;;;;;4976784;28;20022;-72
2021/07/20 08:49:54;;;;;;;17.27;10.32;;;;;;;;;;4976921;28;20034;-71
2021/07/20 08:52:30;;;;;;;16.95;10.40;;;;;;;;;;4976962;28;20046;-71
2021/07/20 08:54:59;;;;;;;14.73;10.40;;;;;;;;;;4976516;28;20386;-69
2021/07/20 08:57:34;;;;;;;12.70;9.80;;;;;;;;;;4977487;28;20089;-70
2021/07/20 09:00:06;;;;;;;15.60;9.95;;;;;;;;;;4995811;28;20042;-71
2021/07/20 09:02:39;;;;;;;17.33;11.60;;;;;;;;;;4995802;28;20110;-71
2021/07/20 09:05:09;;;;;;;16.48;11.18;;;;;;;;;;4995876;28;20027;-70
2021/07/20 09:07:39;;;;;;;13.50;9.30;;;;;;;;;;4996000;28;20113;-70
2021/07/20 09:10:08;;;;;;;16.20;9.15;;;;;;;;;;4996115;28;20038;-68
2021/07/20 09:12:37;;;;;;;14.38;9.77;;;;;;;;;;4993976;28;20041;-67
2021/07/20 09:15:13;;;;;;;12.50;9.52;;;;;;;;;;4995382;28;20105;-68
2021/07/20 09:17:48;;;;;;;12.65;10.05;;;;;;;;;;4995382;28;20105;-69
2021/07/20 09:20:17;;;;;;;16.13;10.75;;;;;;;;;;4992334;28;20022;-67
2021/07/20 09:23:09;;;;;;;18.90;10.98;;;;;;;;;;4995756;28;20033;-68
2021/07/20 09:25:58;;;;;;;15.25;10.93;;;;;;;;;;4994787;28;20913;-69
2021/07/20 09:28:43;;;;;;;12.60;9.50;;;;;;;;;;5022580;28;20140;-70
2021/07/20 09:31:32;;;;;;;13.98;7.93;;;;;;;;;;5033587;28;20029;-69
2021/07/20 09:33:58;;;;;;;10.80;8.70;;;;;;;;;;5034256;28;20025;-70
2021/07/20 09:36:42;;;;;;;13.63;8.90;;;;;;;;;;5032822;28;20366;-70
2021/07/20 09:39:20;;;;;;;17.42;9.75;;;;;;;;;;5035042;28;20013;-71
2021/07/20 09:41:47;;;;;;;12.52;8.43;;;;;;;;;;5033353;28;20026;-69
2021/07/20 09:44:13;;;;;;;16.42;8.90;;;;;;;;;;5034890;28;20039;-69
2021/07/20 09:46:46;;;;;;;10.57;8.38;;;;;;;;;;5034585;28;20029;-67
2021/07/20 09:49:24;;;;;;;13.10;9.13;;;;;;;;;;5034623;28;20114;-70
2021/07/20 09:52:14;;;;;;;13.45;9.50;;;;;;;;;;5033966;28;20036;-70
2021/07/20 09:54:46;;;;;;;11.27;8.77;;;;;;;;;;5014745;28;20025;-69
2021/07/20 09:57:19;;;;;;;12.27;8.88;;;;;;;;;;5033979;28;20110;-71
2021/07/20 09:59:46;;;;;;;13.85;8.90;;;;;;;;;;5033021;28;20032;-67
2021/07/20 10:02:23;;;;;;;11.93;8.57;;;;;;;;;;5034360;28;20474;-71
2021/07/20 10:04:55;;;;;;;10.15;8.07;;;;;;;;;;5033129;28;20108;-70
2021/07/20 10:07:40;;;;;;;14.65;8.68;;;;;;;;;;5032775;28;20048;-68
2021/07/20 10:10:18;;;;;;;9.27;8.30;;;;;;;;;;5032747;28;20033;-68
2021/07/20 10:12:54;;;;;;;12.85;8.52;;;;;;;;;;5034097;28;20025;-71
2021/07/20 10:15:23;;;;;;;16.20;9.65;;;;;;;;;;5032661;28;20025;-69
2021/07/20 10:17:59;;;;;;;16.58;8.98;;;;;;;;;;5032618;28;20021;-69
2021/07/20 10:20:51;;;;;;;13.20;8.52;;;;;;;;;;5032651;28;20091;-69
2021/07/20 10:23:39;;;;;;;15.18;9.02;;;;;;;;;;5025437;28;20041;-68
2021/07/20 10:26:10;;;;;;;13.27;8.57;;;;;;;;;;5033826;28;20024;-68
2021/07/20 10:28:55;;;;;;;15.93;8.73;;;;;;;;;;5032252;28;20056;-70
2021/07/20 10:31:24;;;;;;;11.80;8.68;;;;;;;;;;5033361;28;20431;-68
2021/07/20 10:33:52;;;;;;;13.68;10.00;;;;;;;;;;5032178;28;20017;-70
2021/07/20 10:36:21;;;;;;;16.40;9.43;;;;;;;;;;5033435;28;20022;-68
2021/07/20 10:38:52;;;;;;;13.90;9.35;;;;;;;;;;5033787;28;20434;-68
2021/07/20 10:41:18;;;;;;;;;;;;;;;;;;5033751;28;20035;-67
2021/07/20 10:43:50;;;;;;;12.52;9.32;;;;;;;;;;5040034;28;20365;-69
2021/07/20 10:46:18;;;;;;;10.90;8.55;;;;;;;;;;5051690;28;20029;-71
2021/07/20 10:48:48;;;;;;;17.08;9.02;;;;;;;;;;5051984;28;20021;-71
2021/07/20 10:51:20;;;;;;;14.30;8.60;;;;;;;;;;5053416;28;20099;-66
2021/07/20 10:53:46;;;;;;;10.75;9.30;;;;;;;;;;5053206;28;20025;-68
2021/07/20 10:56:27;;;;;;;12.68;9.45;;;;;;;;;;5053067;28;20029;-67
2021/07/20 10:59:14;;;;;;;13.10;8.48;;;30.70;72.30;;;;;;5051857;28;20017;-68
2021/07/20 11:01:52;;;;;;;13.82;8.88;;;30.60;69.40;;;;;;5051124;28;20021;-70
2021/07/20 11:04:19;;;;;;;14.95;9.77;;;;;;;;;;5053446;28;20076;-69
2021/07/20 11:06:47;;;;;;;14.07;9.70;;;;;;;;;;5053039;28;20104;-69
2021/07/20 11:09:21;;;;;;;14.75;8.73;;;30.60;73.10;;;;;;5052848;28;20032;-69
2021/07/20 11:11:55;;;;;;;13.43;8.50;;;31.40;71.30;;;;;;5052820;28;20167;-67
2021/07/20 11:14:28;;;;;;;13.90;8.43;;;31.90;67.50;;;;;;5052921;28;20024;-66
2021/07/20 11:16:56;;;;;;;14.63;8.80;;;;;;;;;;5051691;28;20021;-68
2021/07/20 11:19:26;;;;;;;14.73;9.68;;;32.20;67.10;;;;;;5051594;28;20055;-67
2021/07/20 11:21:55;;;;;;;17.10;9.60;;;;;;;;;;5052625;28;20098;-66
2021/07/20 11:24:22;;;;;;;17.38;9.70;;;;;;;;;;5051607;28;20187;-66
2021/07/20 11:26:48;;;;;;;13.52;9.70;;;;;;;;;;5052625;28;20025;-67
2021/07/20 11:29:14;;;;;;;14.43;9.40;;;;;;;;;;5052698;28;20028;-64
2021/07/20 11:31:41;;;;;;;18.02;10.27;;;32.30;71.00;;;;;;5052950;28;20021;-66
2021/07/20 11:34:28;;;;;;;15.23;8.88;;;32.30;69.60;;;;;;5051249;28;20025;-65
2021/07/20 11:36:57;;;;;;;15.63;8.93;;;32.90;66.50;;;;;;5052825;28;20100;-68
2021/07/20 11:39:29;;;;;;;16.83;9.25;;;33.10;64.50;;;;;;5052761;28;20044;-70
2021/07/20 11:41:58;;;;;;;;;;;33.40;62.10;;;;;;5051759;28;20033;-66
2021/07/20 11:44:52;;;;;;;12.25;7.78;;;34.20;61.90;;;;;;5052746;28;20026;-66
2021/07/20 11:47:25;;;;;;;13.93;9.02;;;34.80;60.70;;;;;;5050548;28;20048;-68
2021/07/20 11:50:05;;;;;;;13.55;8.25;;;34.60;60.90;;;;;;5051338;28;20395;-67
2021/07/20 11:52:55;;;;;;;12.90;8.68;;;34.00;60.50;;;;;;5052503;28;20032;-67
2021/07/20 11:55:34;;;;;;;10.55;8.35;;;35.00;63.20;;;;;;5052206;28;20082;-69
2021/07/20 11:58:32;;;;;;;14.50;8.70;;;35.30;62.20;;;;;;5053119;28;20032;-68
2021/07/20 12:01:17;;;;;;;18.05;8.52;;;;;;;;;;5027562;28;20100;-70
2021/07/20 12:04:06;;;;;;;11.57;8.80;;;31.90;63.50;;;;;;5056455;28;20025;-68
2021/07/20 12:06:50;;;;;;;14.43;8.35;;;32.40;64.60;;;;;;5041810;28;20095;-69
2021/07/20 12:10:00;;;;;;;14.20;9.43;;;32.90;65.00;;;;;;5035060;28;20030;-66
2021/07/20 12:12:48;;;;;;;13.77;8.93;;;33.80;63.10;;;;;;5036627;28;20032;-68
2021/07/20 12:15:16;;;;;;;15.10;8.50;;;33.30;63.70;;;;;;5035762;28;20029;-70
2021/07/20 12:17:45;;;;;;;12.98;8.52;;;34.10;62.00;;;;;;5034618;28;20025;-69
2021/07/20 12:20:15;;;;;;;14.18;8.63;;;34.60;59.60;;;;;;5035213;28;20493;-69
2021/07/20 12:22:44;;;;;;;13.38;8.50;;;35.70;60.10;;;;;;5035394;28;20040;-69
2021/07/20 12:27:59;;;;;;;15.85;9.23;;;36.80;57.90;;;;;;5033075;28;20053;-70
2021/07/20 12:30:27;;;;;;;16.65;8.40;;;36.70;55.90;;;;;;5036004;28;20065;-70
2021/07/20 12:32:55;;;;;;;11.90;8.07;;;37.30;55.90;;;;;;5036013;28;20029;-69
2021/07/20 12:35:23;;;;;;;17.27;9.07;;;37.00;55.60;;;;;;5035947;28;20029;-70
2021/07/20 12:38:06;;;;;;;12.70;8.05;;;35.30;57.50;;;;;;5035880;28;20022;-69
2021/07/20 12:40:33;;;;;;;13.30;8.70;;;36.20;58.00;;;;;;5035751;28;20047;-69
2021/07/20 12:43:09;;;;;;;9.60;7.78;;;36.40;57.40;;;;;;5035879;28;20056;-69
2021/07/20 12:45:35;;;;;;;13.57;8.55;;;37.10;56.40;;;;;;5035621;28;20068;-69
2021/07/20 12:48:03;;;;;;;16.00;8.75;;;37.40;55.30;;;;;;5034614;28;20029;-70
2021/07/20 12:50:29;;;;;;;17.35;9.05;;;37.50;53.70;;;;;;5035470;28;20175;-70
2021/07/20 12:52:56;;;;;;;13.23;8.38;;;37.90;54.60;;;;;;5034227;28;20483;-70
2021/07/20 12:55:24;;;;;;;10.90;8.30;;;38.60;55.20;;;;;;5035504;28;20049;-70
2021/07/20 12:57:55;;;;;;;10.63;7.93;;;39.50;54.20;;;;;;5035532;28;20055;-70
2021/07/20 13:00:27;;;;;;;13.23;8.07;;;38.00;53.30;;;;;;5035130;28;20160;-69
2021/07/20 13:02:56;;;;;;;15.60;9.05;;;36.20;70.40;;;;;;5034123;28;20116;-70
2021/07/20 13:05:25;;;;;;;12.82;8.63;;;36.80;55.80;;;;;;5035215;28;20027;-70
2021/07/20 13:07:51;;;;;;;11.07;9.00;;;38.00;54.30;;;;;;5035400;28;20018;-70
2021/07/20 13:10:18;;;;;;;14.50;8.45;;;38.70;52.10;;;;;;5034502;28;20369;-70
2021/07/20 13:12:46;;;;;;;14.23;9.52;;;39.10;51.70;;;;;;5034990;28;20167;-70
2021/07/20 13:15:19;;;;;;;11.27;7.68;;;37.50;52.50;;;;;;5035287;28;20458;-70
2021/07/20 13:17:55;;;;;;;14.85;8.93;;;36.80;54.30;;;;;;5035212;28;20029;-73
2021/07/20 13:20:26;;;;;;;15.50;8.65;;;38.50;53.20;;;;;;5054174;28;20415;-71
2021/07/20 13:22:53;;;;;;;11.77;8.50;;;39.50;52.10;;;;;;5053487;28;20068;-71
2021/07/20 13:25:20;;;;;;;12.50;8.95;;;37.90;51.80;;;;;;5051026;28;20035;-71
2021/07/20 13:27:48;;;;;;;13.05;8.27;;;;;;;;;;5054627;28;20049;-70
2021/07/20 13:30:23;;;;;;;13.02;8.60;;;37.20;53.70;;;;;;5054645;28;20112;-70
2021/07/20 13:32:50;;;;;;;14.20;9.07;;;37.80;54.10;;;;;;5052245;28;20477;-70
2021/07/20 13:35:18;;;;;;;17.02;9.25;;;37.10;50.80;;;;;;5054312;28;20041;-71
2021/07/20 13:37:49;;;;;;;14.68;9.18;;;39.70;51.40;;;;;;5054227;28;20067;-71
2021/07/20 13:40:18;;;;;;;15.07;9.02;;;40.00;50.50;;;;;;5054466;28;20057;-69
2021/07/20 13:42:46;;;;;;;11.82;8.50;;;40.70;50.60;;;;;;5054527;28;20029;-71
2021/07/20 13:45:14;;;;;;;13.10;9.02;;;39.00;49.50;;;;;;5054252;28;20029;-71
2021/07/20 13:47:49;;;;;;;12.13;8.73;;;;;;;;;;5054646;28;20032;-69
2021/07/20 13:50:19;;;;;;;13.95;8.95;;;39.00;50.30;;;;;;5042004;28;20382;-71
2021/07/20 13:52:49;;;;;;;14.48;9.63;;;39.30;50.50;;;;;;5034200;28;20091;-71
2021/07/20 13:55:18;;;;;;;11.25;8.68;;;;;;;;;;5034453;28;20036;-69
2021/07/20 13:57:44;;;;;;;11.35;9.27;;;;;;;;;;5034280;28;20355;-71
2021/07/20 14:00:11;;;;;;;16.30;8.82;;;;;;;;;;5034468;28;20061;-70
2021/07/20 14:02:39;;;;;;;19.63;9.65;;;;;;;;;;5033973;28;20061;-70
2021/07/20 14:05:06;;;;;;;12.18;8.60;;;38.00;52.90;;;;;;5034279;28;20028;-70
2021/07/20 14:07:32;;;;;;;13.27;8.98;;;38.70;51.40;;;;;;5034132;28;20104;-71
2021/07/20 14:09:58;;;;;;;11.10;9.18;;;38.30;51.00;;;;;;5033829;28;20522;-71
2021/07/20 14:12:25;;;;;;;11.45;9.05;;;38.40;52.10;;;;;;5032554;28;20113;-71
2021/07/20 14:14:54;;;;;;;13.45;8.52;;;38.40;50.60;;;;;;5033615;28;20026;-70
2021/07/20 14:17:22;;;;;;;11.05;8.90;;;37.80;51.00;;;;;;5034000;28;20026;-71
2021/07/20 14:19:50;;;;;;;13.23;9.40;;;38.20;51.90;;;;;;5033873;28;20030;-71